createdAt,value
2023-10-02T00:04:31.154Z,9.90
2023-10-02T00:09:36.866Z,9.60
2023-10-02T00:14:42.845Z,8.77
2023-10-02T00:19:48.047Z,9.50
2023-10-02T00:24:50.426Z,9.80
2023-10-02T00:29:53.230Z,9.48
2023-10-02T00:35:00.012Z,10.00
2023-10-02T00:40:02.177Z,8.63
2023-10-02T00:45:04.886Z,9.45
2023-10-02T00:50:11.564Z,9.13
2023-10-02T00:55:17.324Z,9.40
2023-10-02T01:00:32.073Z,8.80
2023-10-02T01:05:55.496Z,9.20
2023-10-02T01:11:04.124Z,8.65
2023-10-02T01:16:09.644Z,9.75
2023-10-02T01:21:12.849Z,9.90
2023-10-02T01:26:17.810Z,8.88
2023-10-02T01:31:32.746Z,9.75
2023-10-02T01:36:36.115Z,9.40
2023-10-02T01:41:39.252Z,9.98
2023-10-02T01:46:51.227Z,8.88
2023-10-02T01:51:59.662Z,9.95
2023-10-02T01:57:05.724Z,10.13
2023-10-02T02:02:14.073Z,9.23
2023-10-02T02:07:21.946Z,9.02
2023-10-02T02:12:24.156Z,9.65
2023-10-02T02:17:28.616Z,9.35
2023-10-02T02:22:33.829Z,9.35
2023-10-02T02:27:36.559Z,10.18
2023-10-02T02:32:45.365Z,9.75
2023-10-02T02:37:51.101Z,8.88
2023-10-02T02:42:54.462Z,9.48
2023-10-02T02:47:58.775Z,9.88
2023-10-02T02:53:19.573Z,10.38
2023-10-02T02:58:21.992Z,9.75
2023-10-02T03:03:36.349Z,9.82
2023-10-02T03:08:39.142Z,9.45
2023-10-02T03:13:41.636Z,9.65
2023-10-02T03:18:44.801Z,9.75
2023-10-02T03:23:47.153Z,10.02
2023-10-02T03:28:49.614Z,10.43
2023-10-02T03:33:51.853Z,9.48
2023-10-02T03:38:58.354Z,10.98
2023-10-02T03:44:00.843Z,9.13
2023-10-02T03:49:05.510Z,10.15
2023-10-02T03:54:20.072Z,10.30
2023-10-02T03:59:26.670Z,9.68
2023-10-02T04:04:33.710Z,9.65
2023-10-02T04:09:37.566Z,9.90
2023-10-02T04:14:40.266Z,9.90
2023-10-02T04:19:53.494Z,9.85
2023-10-02T04:25:04.918Z,10.52
2023-10-02T04:35:31.926Z,10.48
2023-10-02T04:40:45.318Z,11.20
2023-10-02T04:45:48.556Z,10.27
2023-10-02T04:50:54.849Z,9.98
2023-10-02T04:56:23.650Z,9.63
2023-10-02T05:01:43.127Z,10.25
2023-10-02T05:06:45.717Z,10.02
2023-10-02T05:12:00.220Z,10.68
2023-10-02T05:17:28.598Z,9.98
2023-10-02T05:22:32.953Z,11.00
2023-10-02T05:27:39.334Z,10.30
2023-10-02T05:32:42.312Z,10.18
2023-10-02T05:37:50.113Z,11.75
2023-10-02T05:43:01.759Z,11.35
2023-10-02T05:48:07.883Z,11.50
2023-10-02T05:53:13.018Z,11.43
2023-10-02T05:58:21.629Z,11.43
2023-10-02T06:03:24.495Z,10.48
2023-10-02T06:08:34.142Z,10.55
2023-10-02T06:13:38.515Z,11.75
2023-10-02T06:18:41.842Z,11.40
2023-10-02T06:23:46.685Z,11.48
2023-10-02T06:29:08.956Z,11.48
2023-10-02T06:34:12.898Z,12.30
2023-10-02T06:39:18.982Z,11.40
2023-10-02T06:44:22.928Z,13.00
2023-10-02T06:49:25.029Z,13.02
2023-10-02T06:54:28.771Z,12.88
2023-10-02T06:59:30.856Z,12.90
2023-10-02T07:04:34.659Z,13.10
2023-10-02T07:09:37.522Z,13.55
2023-10-02T07:14:41.813Z,12.75
2023-10-02T07:19:51.471Z,12.15
2023-10-02T07:24:59.853Z,13.43
2023-10-02T07:30:03.964Z,13.27
2023-10-02T07:35:22.627Z,12.68
2023-10-02T07:40:28.009Z,12.70
2023-10-02T07:45:31.804Z,12.52
2023-10-02T07:50:36.560Z,12.35
2023-10-02T07:55:41.415Z,12.77
2023-10-02T08:00:43.846Z,13.57
2023-10-02T08:05:45.980Z,13.73
2023-10-02T08:10:50.615Z,12.57
2023-10-02T08:15:53.021Z,13.27
2023-10-02T08:20:56.264Z,12.63
2023-10-02T08:26:25.377Z,11.32
2023-10-02T08:31:29.321Z,10.65
2023-10-02T08:36:31.584Z,11.07
2023-10-02T08:41:44.651Z,12.13
2023-10-02T08:46:49.132Z,11.27
2023-10-02T08:51:51.419Z,11.18
2023-10-02T08:57:07.173Z,11.10
2023-10-02T09:02:18.073Z,10.50
2023-10-02T09:07:25.896Z,10.75
2023-10-02T09:12:30.951Z,9.95
2023-10-02T09:17:45.367Z,11.18
2023-10-02T09:23:10.094Z,10.98
2023-10-02T09:28:14.901Z,9.30
2023-10-02T09:33:37.118Z,11.32
2023-10-02T09:38:44.706Z,9.80
2023-10-02T09:43:50.782Z,10.40
2023-10-02T09:49:22.752Z,9.70
2023-10-02T09:59:48.225Z,10.10
2023-10-02T10:05:08.869Z,9.25
2023-10-02T10:10:46.922Z,9.90
2023-10-02T10:15:49.253Z,9.25
2023-10-02T10:20:55.485Z,10.00
2023-10-02T10:26:08.523Z,10.00
2023-10-02T10:31:10.717Z,9.65
2023-10-02T10:36:38.614Z,21.42
2023-10-02T10:41:55.098Z,12.13
2023-10-02T10:46:57.594Z,11.00
2023-10-02T10:52:01.877Z,10.85
2023-10-02T10:57:24.520Z,11.32
2023-10-02T11:02:28.257Z,11.00
2023-10-02T11:07:38.462Z,9.73
2023-10-02T11:12:41.092Z,9.65
2023-10-02T11:17:44.228Z,10.45
2023-10-02T11:22:50.908Z,10.55
2023-10-02T11:27:59.169Z,9.90
2023-10-02T11:33:05.985Z,10.77
2023-10-02T11:38:10.621Z,10.25
2023-10-02T11:43:13.760Z,10.23
2023-10-02T11:48:15.923Z,10.77
2023-10-02T11:53:18.105Z,9.52
2023-10-02T11:58:20.156Z,9.77
2023-10-02T12:03:22.261Z,13.45
2023-10-02T12:08:24.508Z,9.93
2023-10-02T12:13:26.787Z,8.90
2023-10-02T12:18:33.765Z,10.38
2023-10-02T12:23:40.879Z,10.40
2023-10-02T12:28:44.323Z,10.40
2023-10-02T12:33:48.700Z,9.80
2023-10-02T12:38:51.802Z,10.23
2023-10-02T12:43:57.419Z,9.40
2023-10-02T12:49:01.822Z,9.50
2023-10-02T12:54:05.417Z,9.88
2023-10-02T12:59:12.681Z,9.98
2023-10-02T13:04:15.121Z,9.73
2023-10-02T13:09:19.845Z,10.05
2023-10-02T13:14:22.512Z,8.63
2023-10-02T13:19:24.650Z,9.43
2023-10-02T13:24:29.545Z,9.13
2023-10-02T13:29:35.859Z,8.93
2023-10-02T13:34:38.074Z,8.95
2023-10-02T13:39:40.263Z,9.02
2023-10-02T13:44:42.347Z,9.80
2023-10-02T13:49:45.074Z,8.70
2023-10-02T13:54:47.790Z,9.38
2023-10-02T13:59:50.265Z,9.80
2023-10-02T14:04:53.001Z,10.48
2023-10-02T14:09:55.380Z,9.43
2023-10-02T14:14:57.560Z,9.65
2023-10-02T14:20:00.433Z,9.48
2023-10-02T14:25:06.599Z,8.68
2023-10-02T14:30:13.489Z,9.57
2023-10-02T14:35:20.096Z,9.57
2023-10-02T14:40:30.866Z,9.02
2023-10-02T14:45:34.947Z,10.05
2023-10-02T14:50:38.749Z,9.55
2023-10-02T14:55:46.331Z,9.15
2023-10-02T15:00:49.248Z,10.07
2023-10-02T15:05:51.499Z,10.15
2023-10-02T15:10:54.468Z,10.27
2023-10-02T15:15:58.440Z,10.50
2023-10-02T15:21:03.439Z,9.55
2023-10-02T15:26:05.850Z,9.93
2023-10-02T15:31:08.788Z,10.88
2023-10-02T15:36:12.908Z,10.25
2023-10-02T15:41:31.480Z,10.48
2023-10-02T15:46:34.573Z,11.00
2023-10-02T15:51:38.229Z,9.80
2023-10-02T15:56:40.484Z,9.75
2023-10-02T16:01:42.716Z,9.52
2023-10-02T16:06:57.003Z,10.57
2023-10-02T16:12:06.247Z,10.25
2023-10-02T16:17:08.918Z,10.30
2023-10-02T16:22:11.172Z,11.18
2023-10-02T16:27:13.232Z,10.23
2023-10-02T16:32:15.560Z,11.02
2023-10-02T16:37:17.668Z,10.98
2023-10-02T16:42:19.800Z,11.18
2023-10-02T16:47:22.141Z,10.32
2023-10-02T16:52:24.365Z,10.80
2023-10-02T16:57:31.506Z,10.98
2023-10-02T17:02:33.713Z,9.60
2023-10-02T17:07:36.508Z,10.75
2023-10-02T17:12:38.588Z,10.48
2023-10-02T17:17:45.337Z,12.25
2023-10-02T17:22:48.851Z,17.80
2023-10-02T17:27:53.710Z,17.63
2023-10-02T17:32:58.510Z,20.42
2023-10-02T17:38:01.345Z,13.43
2023-10-02T17:43:04.303Z,12.30
2023-10-02T17:48:06.809Z,11.07
2023-10-02T17:53:09.262Z,11.35
2023-10-02T17:58:12.088Z,11.85
2023-10-02T18:03:16.382Z,11.43
2023-10-02T18:08:18.600Z,11.07
2023-10-02T18:13:20.779Z,11.90
2023-10-02T18:18:23.211Z,11.82
2023-10-02T18:23:25.482Z,12.02
2023-10-02T18:28:27.681Z,12.07
2023-10-02T18:33:29.921Z,11.60
2023-10-02T18:38:35.980Z,11.90
2023-10-02T18:43:38.980Z,11.60
2023-10-02T18:48:42.172Z,12.50
2023-10-02T18:53:44.548Z,12.27
2023-10-02T18:58:46.881Z,12.23
2023-10-02T19:03:49.765Z,12.23
2023-10-02T19:08:53.055Z,12.95
2023-10-02T19:13:56.565Z,12.63
2023-10-02T19:18:58.910Z,12.43
2023-10-02T19:24:01.317Z,12.20
2023-10-02T19:29:04.110Z,12.32
2023-10-02T19:34:06.781Z,12.70
2023-10-02T19:39:10.009Z,13.35
2023-10-02T19:44:13.823Z,13.10
2023-10-02T19:49:16.635Z,12.93
2023-10-02T19:54:20.723Z,12.88
2023-10-02T19:59:22.897Z,13.93
2023-10-02T20:04:26.213Z,14.98
2023-10-02T20:09:28.399Z,13.10
2023-10-02T20:14:30.498Z,13.77
2023-10-02T20:19:34.196Z,13.88
2023-10-02T20:24:39.662Z,13.38
2023-10-02T20:29:43.160Z,13.27
2023-10-02T20:34:45.628Z,14.10
2023-10-02T20:39:49.024Z,13.13
2023-10-02T20:44:51.374Z,13.25
2023-10-02T20:49:55.214Z,13.05
2023-10-02T20:54:57.578Z,12.93
2023-10-02T20:59:59.782Z,13.25
2023-10-02T21:05:02.205Z,13.00
2023-10-02T21:10:04.720Z,13.25
2023-10-02T21:15:15.693Z,13.07
2023-10-02T21:20:18.270Z,13.40
2023-10-02T21:25:20.460Z,13.43
2023-10-02T21:30:22.609Z,14.02
2023-10-02T21:35:25.144Z,13.95
2023-10-02T21:40:27.325Z,13.85
2023-10-02T21:45:30.800Z,14.55
2023-10-02T21:50:32.995Z,13.80
2023-10-02T21:55:37.184Z,14.85
2023-10-02T22:00:49.356Z,14.30
2023-10-02T22:05:51.512Z,15.15
2023-10-02T22:10:53.842Z,13.10
2023-10-02T22:15:57.557Z,14.18
2023-10-02T22:21:12.281Z,14.63
2023-10-02T22:26:20.805Z,16.33
2023-10-02T22:31:24.318Z,15.60
2023-10-02T22:36:27.418Z,15.70
2023-10-02T22:41:30.476Z,15.32
2023-10-02T22:46:33.226Z,16.55
2023-10-02T22:51:36.355Z,16.33
2023-10-02T22:56:39.051Z,16.15
2023-10-02T23:01:41.535Z,16.95
2023-10-02T23:06:44.075Z,16.90
2023-10-02T23:11:46.263Z,17.42
2023-10-02T23:16:49.049Z,17.00
2023-10-02T23:21:55.551Z,18.27
2023-10-02T23:26:59.470Z,17.77
2023-10-02T23:32:02.576Z,17.65
2023-10-02T23:37:06.517Z,17.02
2023-10-02T23:42:10.300Z,17.25
2023-10-02T23:47:15.197Z,17.38
2023-10-02T23:52:17.539Z,17.90
2023-10-02T23:57:20.789Z,17.83
